sensor_id;sensor_type;location;lat;lon;timestamp;temperature;humidity
1083;DHT22;530;51.448;7.238;2023-08-30T00:01:24;15.80;99.90
1083;DHT22;530;51.448;7.238;2023-08-30T00:03:50;15.80;99.90
1083;DHT22;530;51.448;7.238;2023-08-30T00:06:16;15.80;99.90
1083;DHT22;530;51.448;7.238;2023-08-30T00:08:41;15.80;99.90
1083;DHT22;530;51.448;7.238;2023-08-30T00:11:07;15.80;99.90
1083;DHT22;530;51.448;7.238;2023-08-30T00:13:33;15.80;99.90
1083;DHT22;530;51.448;7.238;2023-08-30T00:15:59;15.70;99.90
1083;DHT22;530;51.448;7.238;2023-08-30T00:18:25;15.70;99.90
1083;DHT22;530;51.448;7.238;2023-08-30T00:20:51;15.50;99.90
1083;DHT22;530;51.448;7.238;2023-08-30T00:23:16;15.40;99.90
1083;DHT22;530;51.448;7.238;2023-08-30T00:25:42;15.40;99.90
1083;DHT22;530;51.448;7.238;2023-08-30T00:28:08;15.30;99.90
1083;DHT22;530;51.448;7.238;2023-08-30T00:30:33;15.20;99.90
1083;DHT22;530;51.448;7.238;2023-08-30T00:32:59;15.20;99.90
1083;DHT22;530;51.448;7.238;2023-08-30T00:35:25;15.10;99.90
1083;DHT22;530;51.448;7.238;2023-08-30T00:37:50;15.10;99.90
1083;DHT22;530;51.448;7.238;2023-08-30T00:40:16;15.10;99.90
1083;DHT22;530;51.448;7.238;2023-08-30T00:42:42;15.10;99.90
1083;DHT22;530;51.448;7.238;2023-08-30T00:45:08;15.20;99.90
1083;DHT22;530;51.448;7.238;2023-08-30T00:47:34;15.20;99.90
1083;DHT22;530;51.448;7.238;2023-08-30T00:50:00;15.20;99.90
1083;DHT22;530;51.448;7.238;2023-08-30T00:52:26;15.30;99.90
1083;DHT22;530;51.448;7.238;2023-08-30T00:54:52;15.30;99.90
1083;DHT22;530;51.448;7.238;2023-08-30T00:57:18;15.20;99.90
1083;DHT22;530;51.448;7.238;2023-08-30T00:59:44;15.20;99.90
1083;DHT22;530;51.448;7.238;2023-08-30T01:02:09;15.20;99.90
1083;DHT22;530;51.448;7.238;2023-08-30T01:04:35;15.20;99.90
1083;DHT22;530;51.448;7.238;2023-08-30T01:07:01;15.10;99.90
1083;DHT22;530;51.448;7.238;2023-08-30T01:09:27;15.10;99.90
1083;DHT22;530;51.448;7.238;2023-08-30T01:15:00;15.10;99.90
1083;DHT22;530;51.448;7.238;2023-08-30T01:17:29;15.10;99.90
1083;DHT22;530;51.448;7.238;2023-08-30T01:20:05;15.10;99.90
1083;DHT22;530;51.448;7.238;2023-08-30T01:23:00;15.10;99.90
1083;DHT22;530;51.448;7.238;2023-08-30T01:28:02;15.00;99.90
1083;DHT22;530;51.448;7.238;2023-08-30T01:30:32;15.00;99.90
1083;DHT22;530;51.448;7.238;2023-08-30T01:33:00;15.00;99.90
1083;DHT22;530;51.448;7.238;2023-08-30T01:35:28;15.10;99.90
1083;DHT22;530;51.448;7.238;2023-08-30T01:37:58;15.00;99.90
1083;DHT22;530;51.448;7.238;2023-08-30T01:40:27;15.10;99.90
1083;DHT22;530;51.448;7.238;2023-08-30T01:42:53;15.10;99.90
1083;DHT22;530;51.448;7.238;2023-08-30T01:45:20;15.00;99.90
1083;DHT22;530;51.448;7.238;2023-08-30T01:47:48;15.00;99.90
1083;DHT22;530;51.448;7.238;2023-08-30T01:50:15;14.90;99.90
1083;DHT22;530;51.448;7.238;2023-08-30T01:52:41;14.90;99.90
1083;DHT22;530;51.448;7.238;2023-08-30T01:55:08;14.80;99.90
1083;DHT22;530;51.448;7.238;2023-08-30T01:57:35;14.80;99.90
1083;DHT22;530;51.448;7.238;2023-08-30T02:00:01;14.80;99.90
1083;DHT22;530;51.448;7.238;2023-08-30T02:02:30;14.90;99.90
1083;DHT22;530;51.448;7.238;2023-08-30T02:04:55;14.90;99.90
1083;DHT22;530;51.448;7.238;2023-08-30T02:07:58;14.90;99.90
1083;DHT22;530;51.448;7.238;2023-08-30T02:10:33;14.90;99.90
1083;DHT22;530;51.448;7.238;2023-08-30T02:13:00;14.90;99.90
1083;DHT22;530;51.448;7.238;2023-08-30T02:15:27;14.90;99.90
1083;DHT22;530;51.448;7.238;2023-08-30T02:17:53;14.90;99.90
1083;DHT22;530;51.448;7.238;2023-08-30T02:20:19;15.00;99.90
1083;DHT22;530;51.448;7.238;2023-08-30T02:22:45;15.00;99.90
1083;DHT22;530;51.448;7.238;2023-08-30T02:25:11;15.10;99.90
1083;DHT22;530;51.448;7.238;2023-08-30T02:27:37;15.10;99.90
1083;DHT22;530;51.448;7.238;2023-08-30T02:30:03;15.10;99.90
1083;DHT22;530;51.448;7.238;2023-08-30T02:32:29;15.10;99.90
1083;DHT22;530;51.448;7.238;2023-08-30T02:34:56;15.00;99.90
1083;DHT22;530;51.448;7.238;2023-08-30T02:37:22;15.00;99.90
1083;DHT22;530;51.448;7.238;2023-08-30T02:39:47;15.00;99.90
1083;DHT22;530;51.448;7.238;2023-08-30T02:42:13;15.00;99.90
1083;DHT22;530;51.448;7.238;2023-08-30T02:44:39;15.00;99.90
1083;DHT22;530;51.448;7.238;2023-08-30T02:47:04;15.00;99.90
1083;DHT22;530;51.448;7.238;2023-08-30T02:49:30;15.00;99.90
1083;DHT22;530;51.448;7.238;2023-08-30T02:51:56;14.80;99.90
1083;DHT22;530;51.448;7.238;2023-08-30T02:54:21;14.70;99.90
1083;DHT22;530;51.448;7.238;2023-08-30T02:56:48;14.60;99.90
1083;DHT22;530;51.448;7.238;2023-08-30T02:59:14;14.60;99.90
1083;DHT22;530;51.448;7.238;2023-08-30T03:01:40;14.60;99.90
1083;DHT22;530;51.448;7.238;2023-08-30T03:04:06;14.50;99.90
1083;DHT22;530;51.448;7.238;2023-08-30T03:06:32;14.50;99.90
1083;DHT22;530;51.448;7.238;2023-08-30T03:08:58;14.50;99.90
1083;DHT22;530;51.448;7.238;2023-08-30T03:11:24;14.60;99.90
1083;DHT22;530;51.448;7.238;2023-08-30T03:13:50;14.60;99.90
1083;DHT22;530;51.448;7.238;2023-08-30T03:16:16;14.70;99.90
1083;DHT22;530;51.448;7.238;2023-08-30T03:18:43;14.70;99.90
1083;DHT22;530;51.448;7.238;2023-08-30T03:21:10;14.60;99.90
1083;DHT22;530;51.448;7.238;2023-08-30T03:23:36;14.60;99.90
1083;DHT22;530;51.448;7.238;2023-08-30T03:26:15;14.50;99.90
1083;DHT22;530;51.448;7.238;2023-08-30T03:28:42;14.50;99.90
1083;DHT22;530;51.448;7.238;2023-08-30T03:33:40;14.50;99.90
1083;DHT22;530;51.448;7.238;2023-08-30T03:36:15;14.40;99.90
1083;DHT22;530;51.448;7.238;2023-08-30T03:38:42;14.30;99.90
1083;DHT22;530;51.448;7.238;2023-08-30T03:41:09;14.20;99.90
1083;DHT22;530;51.448;7.238;2023-08-30T03:43:35;14.10;99.90
1083;DHT22;530;51.448;7.238;2023-08-30T03:46:01;14.00;99.90
1083;DHT22;530;51.448;7.238;2023-08-30T03:48:28;14.00;99.90
1083;DHT22;530;51.448;7.238;2023-08-30T03:50:55;14.00;99.90
1083;DHT22;530;51.448;7.238;2023-08-30T03:53:21;14.00;99.90
1083;DHT22;530;51.448;7.238;2023-08-30T03:55:46;14.00;99.90
1083;DHT22;530;51.448;7.238;2023-08-30T03:58:12;14.00;99.90
1083;DHT22;530;51.448;7.238;2023-08-30T04:00:38;14.10;99.90
1083;DHT22;530;51.448;7.238;2023-08-30T04:03:07;14.10;99.90
1083;DHT22;530;51.448;7.238;2023-08-30T04:05:34;14.10;99.90
1083;DHT22;530;51.448;7.238;2023-08-30T04:08:01;14.10;99.90
1083;DHT22;530;51.448;7.238;2023-08-30T04:10:27;14.10;99.90
1083;DHT22;530;51.448;7.238;2023-08-30T04:12:53;14.10;99.90
1083;DHT22;530;51.448;7.238;2023-08-30T04:15:18;14.10;99.90
1083;DHT22;530;51.448;7.238;2023-08-30T04:17:45;14.10;99.90
1083;DHT22;530;51.448;7.238;2023-08-30T04:20:10;14.10;99.90
1083;DHT22;530;51.448;7.238;2023-08-30T04:22:37;14.10;99.90
1083;DHT22;530;51.448;7.238;2023-08-30T04:25:03;14.20;99.90
1083;DHT22;530;51.448;7.238;2023-08-30T04:27:29;14.30;99.90
1083;DHT22;530;51.448;7.238;2023-08-30T04:29:55;14.20;99.90
1083;DHT22;530;51.448;7.238;2023-08-30T04:32:21;14.20;99.90
1083;DHT22;530;51.448;7.238;2023-08-30T04:34:46;14.20;99.90
1083;DHT22;530;51.448;7.238;2023-08-30T04:37:12;14.10;99.90
1083;DHT22;530;51.448;7.238;2023-08-30T04:39:38;14.10;99.90
1083;DHT22;530;51.448;7.238;2023-08-30T04:42:03;14.10;99.90
1083;DHT22;530;51.448;7.238;2023-08-30T04:44:29;14.00;99.90
1083;DHT22;530;51.448;7.238;2023-08-30T04:46:57;14.00;99.90
1083;DHT22;530;51.448;7.238;2023-08-30T04:49:23;14.00;99.90
1083;DHT22;530;51.448;7.238;2023-08-30T04:51:51;14.00;99.90
1083;DHT22;530;51.448;7.238;2023-08-30T04:54:16;14.00;99.90
1083;DHT22;530;51.448;7.238;2023-08-30T04:56:42;14.00;99.90
1083;DHT22;530;51.448;7.238;2023-08-30T04:59:08;14.00;99.90
1083;DHT22;530;51.448;7.238;2023-08-30T05:01:34;14.00;99.90
1083;DHT22;530;51.448;7.238;2023-08-30T05:03:59;14.00;99.90
1083;DHT22;530;51.448;7.238;2023-08-30T05:06:26;14.00;99.90
1083;DHT22;530;51.448;7.238;2023-08-30T05:08:52;13.90;99.90
1083;DHT22;530;51.448;7.238;2023-08-30T05:11:17;14.00;99.90
1083;DHT22;530;51.448;7.238;2023-08-30T05:13:43;14.00;99.90
1083;DHT22;530;51.448;7.238;2023-08-30T05:16:09;14.00;99.90
1083;DHT22;530;51.448;7.238;2023-08-30T05:18:34;13.90;99.90
1083;DHT22;530;51.448;7.238;2023-08-30T05:21:00;13.90;99.90
1083;DHT22;530;51.448;7.238;2023-08-30T05:23:29;14.00;99.90
1083;DHT22;530;51.448;7.238;2023-08-30T05:25:54;14.00;99.90
1083;DHT22;530;51.448;7.238;2023-08-30T05:28:20;14.00;99.90
1083;DHT22;530;51.448;7.238;2023-08-30T05:30:46;14.00;99.90
1083;DHT22;530;51.448;7.238;2023-08-30T05:33:11;14.00;99.90
1083;DHT22;530;51.448;7.238;2023-08-30T05:35:37;14.00;99.90
1083;DHT22;530;51.448;7.238;2023-08-30T05:38:03;14.00;99.90
1083;DHT22;530;51.448;7.238;2023-08-30T05:40:29;14.00;99.90
1083;DHT22;530;51.448;7.238;2023-08-30T05:42:55;14.10;99.90
1083;DHT22;530;51.448;7.238;2023-08-30T05:45:20;14.10;99.90
1083;DHT22;530;51.448;7.238;2023-08-30T05:47:46;14.00;99.90
1083;DHT22;530;51.448;7.238;2023-08-30T05:50:12;14.10;99.90
1083;DHT22;530;51.448;7.238;2023-08-30T05:52:37;14.10;99.90
1083;DHT22;530;51.448;7.238;2023-08-30T05:55:08;14.20;99.90
1083;DHT22;530;51.448;7.238;2023-08-30T05:57:34;14.30;99.90
1083;DHT22;530;51.448;7.238;2023-08-30T06:00:00;14.30;99.90
1083;DHT22;530;51.448;7.238;2023-08-30T06:02:26;14.30;99.90
1083;DHT22;530;51.448;7.238;2023-08-30T06:04:52;14.40;99.90
1083;DHT22;530;51.448;7.238;2023-08-30T06:07:18;14.40;99.90
1083;DHT22;530;51.448;7.238;2023-08-30T06:09:44;14.40;99.90
1083;DHT22;530;51.448;7.238;2023-08-30T06:12:10;14.40;99.90
1083;DHT22;530;51.448;7.238;2023-08-30T06:14:35;14.50;99.90
1083;DHT22;530;51.448;7.238;2023-08-30T06:17:01;14.60;99.90
1083;DHT22;530;51.448;7.238;2023-08-30T06:19:27;14.60;99.90
1083;DHT22;530;51.448;7.238;2023-08-30T06:21:53;14.80;99.90
1083;DHT22;530;51.448;7.238;2023-08-30T06:24:19;14.80;99.90
1083;DHT22;530;51.448;7.238;2023-08-30T06:26:44;14.90;99.90
1083;DHT22;530;51.448;7.238;2023-08-30T06:29:10;14.90;99.90
1083;DHT22;530;51.448;7.238;2023-08-30T06:31:36;15.10;99.90
1083;DHT22;530;51.448;7.238;2023-08-30T06:34:03;15.20;99.90
1083;DHT22;530;51.448;7.238;2023-08-30T06:36:29;15.30;99.90
1083;DHT22;530;51.448;7.238;2023-08-30T06:38:54;15.40;99.90
1083;DHT22;530;51.448;7.238;2023-08-30T06:41:20;15.50;99.90
1083;DHT22;530;51.448;7.238;2023-08-30T06:43:46;15.50;99.90
1083;DHT22;530;51.448;7.238;2023-08-30T06:46:11;15.60;99.90
1083;DHT22;530;51.448;7.238;2023-08-30T06:48:37;15.70;99.90
1083;DHT22;530;51.448;7.238;2023-08-30T06:51:03;15.80;99.90
1083;DHT22;530;51.448;7.238;2023-08-30T06:53:28;15.80;99.90
1083;DHT22;530;51.448;7.238;2023-08-30T06:56:01;15.90;99.90
1083;DHT22;530;51.448;7.238;2023-08-30T06:58:27;16.00;99.90
1083;DHT22;530;51.448;7.238;2023-08-30T07:00:53;16.10;99.90
1083;DHT22;530;51.448;7.238;2023-08-30T07:03:19;16.20;99.90
1083;DHT22;530;51.448;7.238;2023-08-30T07:05:44;16.30;99.90
1083;DHT22;530;51.448;7.238;2023-08-30T07:08:15;16.40;99.90
1083;DHT22;530;51.448;7.238;2023-08-30T07:10:41;16.50;99.90
1083;DHT22;530;51.448;7.238;2023-08-30T07:13:07;16.50;99.90
1083;DHT22;530;51.448;7.238;2023-08-30T07:15:39;16.60;99.90
1083;DHT22;530;51.448;7.238;2023-08-30T07:18:06;16.70;99.90
1083;DHT22;530;51.448;7.238;2023-08-30T07:20:33;16.70;99.90
1083;DHT22;530;51.448;7.238;2023-08-30T07:22:59;16.80;99.90
1083;DHT22;530;51.448;7.238;2023-08-30T07:25:25;16.80;99.90
1083;DHT22;530;51.448;7.238;2023-08-30T07:27:50;16.90;99.90
1083;DHT22;530;51.448;7.238;2023-08-30T07:30:16;16.90;99.90
1083;DHT22;530;51.448;7.238;2023-08-30T07:32:42;16.90;99.90
1083;DHT22;530;51.448;7.238;2023-08-30T07:35:07;16.90;99.90
1083;DHT22;530;51.448;7.238;2023-08-30T07:37:34;17.00;99.90
1083;DHT22;530;51.448;7.238;2023-08-30T07:40:00;17.00;99.90
1083;DHT22;530;51.448;7.238;2023-08-30T07:42:26;17.10;99.90
1083;DHT22;530;51.448;7.238;2023-08-30T07:44:51;17.10;99.90
1083;DHT22;530;51.448;7.238;2023-08-30T07:47:17;17.20;99.90
1083;DHT22;530;51.448;7.238;2023-08-30T07:49:43;17.20;99.90
1083;DHT22;530;51.448;7.238;2023-08-30T07:52:09;17.20;99.90
1083;DHT22;530;51.448;7.238;2023-08-30T07:54:37;17.30;99.90
1083;DHT22;530;51.448;7.238;2023-08-30T07:57:04;17.30;99.90
1083;DHT22;530;51.448;7.238;2023-08-30T07:59:30;17.30;99.90
1083;DHT22;530;51.448;7.238;2023-08-30T08:01:55;17.40;99.90
1083;DHT22;530;51.448;7.238;2023-08-30T08:04:21;17.40;99.90
1083;DHT22;530;51.448;7.238;2023-08-30T08:06:47;17.40;99.90
1083;DHT22;530;51.448;7.238;2023-08-30T08:09:13;17.50;99.90
1083;DHT22;530;51.448;7.238;2023-08-30T08:11:38;17.50;99.90
1083;DHT22;530;51.448;7.238;2023-08-30T08:14:09;17.50;99.90
1083;DHT22;530;51.448;7.238;2023-08-30T08:16:35;17.60;99.90
1083;DHT22;530;51.448;7.238;2023-08-30T08:19:01;17.60;99.90
1083;DHT22;530;51.448;7.238;2023-08-30T08:21:28;17.60;99.90
1083;DHT22;530;51.448;7.238;2023-08-30T08:23:54;17.60;99.90
1083;DHT22;530;51.448;7.238;2023-08-30T08:26:19;17.70;99.90
1083;DHT22;530;51.448;7.238;2023-08-30T08:28:45;17.70;99.90
1083;DHT22;530;51.448;7.238;2023-08-30T08:31:11;17.80;99.90
1083;DHT22;530;51.448;7.238;2023-08-30T08:33:36;17.80;99.90
1083;DHT22;530;51.448;7.238;2023-08-30T08:36:02;17.90;99.90
1083;DHT22;530;51.448;7.238;2023-08-30T08:38:28;18.00;99.90
1083;DHT22;530;51.448;7.238;2023-08-30T08:41:01;18.00;99.90
1083;DHT22;530;51.448;7.238;2023-08-30T08:43:28;18.10;99.90
1083;DHT22;530;51.448;7.238;2023-08-30T08:45:57;18.20;99.90
1083;DHT22;530;51.448;7.238;2023-08-30T08:48:26;18.30;99.90
1083;DHT22;530;51.448;7.238;2023-08-30T08:50:54;18.40;99.90
1083;DHT22;530;51.448;7.238;2023-08-30T08:53:21;18.40;99.90
1083;DHT22;530;51.448;7.238;2023-08-30T08:55:47;18.50;99.90
1083;DHT22;530;51.448;7.238;2023-08-30T08:58:14;18.50;99.90
1083;DHT22;530;51.448;7.238;2023-08-30T09:00:44;18.60;99.90
1083;DHT22;530;51.448;7.238;2023-08-30T09:03:10;18.70;99.90
1083;DHT22;530;51.448;7.238;2023-08-30T09:05:37;18.60;99.90
1083;DHT22;530;51.448;7.238;2023-08-30T09:08:05;18.70;99.90
1083;DHT22;530;51.448;7.238;2023-08-30T09:10:34;18.80;99.90
1083;DHT22;530;51.448;7.238;2023-08-30T09:13:01;18.80;99.90
1083;DHT22;530;51.448;7.238;2023-08-30T09:15:33;18.90;99.90
1083;DHT22;530;51.448;7.238;2023-08-30T09:17:59;18.90;99.90
1083;DHT22;530;51.448;7.238;2023-08-30T09:20:25;18.90;99.90
1083;DHT22;530;51.448;7.238;2023-08-30T09:22:51;18.90;99.90
1083;DHT22;530;51.448;7.238;2023-08-30T09:25:27;18.90;99.90
1083;DHT22;530;51.448;7.238;2023-08-30T09:28:02;18.90;99.90
1083;DHT22;530;51.448;7.238;2023-08-30T09:30:29;18.90;99.90
1083;DHT22;530;51.448;7.238;2023-08-30T09:33:01;19.00;99.90
1083;DHT22;530;51.448;7.238;2023-08-30T09:35:28;18.90;99.90
1083;DHT22;530;51.448;7.238;2023-08-30T09:37:54;18.90;99.90
1083;DHT22;530;51.448;7.238;2023-08-30T09:40:20;18.90;99.90
1083;DHT22;530;51.448;7.238;2023-08-30T09:42:45;18.90;99.90
1083;DHT22;530;51.448;7.238;2023-08-30T09:47:49;18.90;99.90
1083;DHT22;530;51.448;7.238;2023-08-30T09:50:19;19.00;99.90
1083;DHT22;530;51.448;7.238;2023-08-30T09:52:49;19.10;99.90
1083;DHT22;530;51.448;7.238;2023-08-30T09:55:15;19.10;99.90
1083;DHT22;530;51.448;7.238;2023-08-30T09:57:42;19.20;99.90
1083;DHT22;530;51.448;7.238;2023-08-30T10:00:11;19.10;99.90
1083;DHT22;530;51.448;7.238;2023-08-30T10:02:43;19.00;99.90
1083;DHT22;530;51.448;7.238;2023-08-30T10:05:12;18.90;99.90
1083;DHT22;530;51.448;7.238;2023-08-30T10:07:39;18.90;99.90
1083;DHT22;530;51.448;7.238;2023-08-30T10:10:05;18.80;99.90
1083;DHT22;530;51.448;7.238;2023-08-30T10:12:31;18.60;99.90
1083;DHT22;530;51.448;7.238;2023-08-30T10:14:58;18.40;99.90
1083;DHT22;530;51.448;7.238;2023-08-30T10:17:27;18.30;99.90
1083;DHT22;530;51.448;7.238;2023-08-30T10:19:55;18.10;99.90
1083;DHT22;530;51.448;7.238;2023-08-30T10:22:21;18.00;99.90
1083;DHT22;530;51.448;7.238;2023-08-30T10:24:52;17.90;99.90
1083;DHT22;530;51.448;7.238;2023-08-30T10:27:20;17.80;99.90
1083;DHT22;530;51.448;7.238;2023-08-30T10:29:48;17.70;99.90
1083;DHT22;530;51.448;7.238;2023-08-30T10:32:19;17.70;99.90
1083;DHT22;530;51.448;7.238;2023-08-30T10:34:48;17.70;99.90
1083;DHT22;530;51.448;7.238;2023-08-30T10:37:15;17.70;99.90
1083;DHT22;530;51.448;7.238;2023-08-30T10:39:42;17.60;99.90
1083;DHT22;530;51.448;7.238;2023-08-30T10:42:12;17.50;99.90
1083;DHT22;530;51.448;7.238;2023-08-30T10:44:52;17.50;99.90
1083;DHT22;530;51.448;7.238;2023-08-30T10:47:28;17.40;99.90
1083;DHT22;530;51.448;7.238;2023-08-30T10:49:59;17.40;99.90
1083;DHT22;530;51.448;7.238;2023-08-30T10:52:26;17.40;99.90
1083;DHT22;530;51.448;7.238;2023-08-30T10:54:52;17.50;99.90
1083;DHT22;530;51.448;7.238;2023-08-30T10:57:20;17.50;99.90
1083;DHT22;530;51.448;7.238;2023-08-30T11:02:33;17.50;99.90
1083;DHT22;530;51.448;7.238;2023-08-30T11:05:00;17.40;99.90
1083;DHT22;530;51.448;7.238;2023-08-30T11:07:26;17.20;99.90
1083;DHT22;530;51.448;7.238;2023-08-30T11:09:52;17.10;99.90
1083;DHT22;530;51.448;7.238;2023-08-30T11:12:18;17.10;99.90
1083;DHT22;530;51.448;7.238;2023-08-30T11:14:45;17.00;99.90
1083;DHT22;530;51.448;7.238;2023-08-30T11:17:11;17.00;99.90
1083;DHT22;530;51.448;7.238;2023-08-30T11:19:36;16.90;99.90
1083;DHT22;530;51.448;7.238;2023-08-30T11:22:02;16.90;99.90
1083;DHT22;530;51.448;7.238;2023-08-30T11:24:28;16.80;99.90
1083;DHT22;530;51.448;7.238;2023-08-30T11:26:54;16.80;99.90
1083;DHT22;530;51.448;7.238;2023-08-30T11:29:20;16.80;99.90
1083;DHT22;530;51.448;7.238;2023-08-30T11:31:46;16.70;99.90
1083;DHT22;530;51.448;7.238;2023-08-30T11:34:12;16.70;99.90
1083;DHT22;530;51.448;7.238;2023-08-30T11:36:38;16.70;99.90
1083;DHT22;530;51.448;7.238;2023-08-30T11:39:04;16.70;99.90
1083;DHT22;530;51.448;7.238;2023-08-30T11:41:31;16.80;99.90
1083;DHT22;530;51.448;7.238;2023-08-30T11:43:58;16.70;99.90
1083;DHT22;530;51.448;7.238;2023-08-30T11:46:24;16.70;99.90
1083;DHT22;530;51.448;7.238;2023-08-30T11:48:51;16.80;99.90
1083;DHT22;530;51.448;7.238;2023-08-30T11:51:18;16.70;99.90
1083;DHT22;530;51.448;7.238;2023-08-30T11:53:45;16.70;99.90
1083;DHT22;530;51.448;7.238;2023-08-30T11:56:11;16.40;99.90
1083;DHT22;530;51.448;7.238;2023-08-30T11:58:37;16.30;99.90
1083;DHT22;530;51.448;7.238;2023-08-30T12:01:04;16.30;99.90
1083;DHT22;530;51.448;7.238;2023-08-30T12:03:31;16.40;99.90
1083;DHT22;530;51.448;7.238;2023-08-30T12:05:57;16.40;99.90
1083;DHT22;530;51.448;7.238;2023-08-30T12:08:25;16.30;99.90
1083;DHT22;530;51.448;7.238;2023-08-30T12:10:51;16.20;99.90
1083;DHT22;530;51.448;7.238;2023-08-30T12:13:24;16.30;99.90
1083;DHT22;530;51.448;7.238;2023-08-30T12:15:51;16.30;99.90
1083;DHT22;530;51.448;7.238;2023-08-30T12:18:16;16.30;99.90
1083;DHT22;530;51.448;7.238;2023-08-30T12:20:56;16.30;99.90
1083;DHT22;530;51.448;7.238;2023-08-30T12:23:24;16.20;99.90
1083;DHT22;530;51.448;7.238;2023-08-30T12:26:06;16.10;99.90
1083;DHT22;530;51.448;7.238;2023-08-30T12:28:33;16.10;99.90
1083;DHT22;530;51.448;7.238;2023-08-30T12:30:59;16.00;99.90
1083;DHT22;530;51.448;7.238;2023-08-30T12:33:25;16.00;99.90
1083;DHT22;530;51.448;7.238;2023-08-30T12:35:55;16.00;99.90
1083;DHT22;530;51.448;7.238;2023-08-30T12:38:21;16.00;99.90
1083;DHT22;530;51.448;7.238;2023-08-30T12:40:48;16.00;99.90
1083;DHT22;530;51.448;7.238;2023-08-30T12:43:17;16.00;99.90
1083;DHT22;530;51.448;7.238;2023-08-30T12:45:44;16.00;99.90
1083;DHT22;530;51.448;7.238;2023-08-30T12:48:11;16.00;99.90
1083;DHT22;530;51.448;7.238;2023-08-30T12:50:38;16.00;99.90
1083;DHT22;530;51.448;7.238;2023-08-30T12:53:05;16.10;99.90
1083;DHT22;530;51.448;7.238;2023-08-30T12:55:31;16.20;99.90
1083;DHT22;530;51.448;7.238;2023-08-30T12:57:56;16.30;99.90
1083;DHT22;530;51.448;7.238;2023-08-30T13:00:23;16.40;99.90
1083;DHT22;530;51.448;7.238;2023-08-30T13:02:48;16.30;99.90
1083;DHT22;530;51.448;7.238;2023-08-30T13:05:14;16.30;99.90
1083;DHT22;530;51.448;7.238;2023-08-30T13:07:40;16.30;99.90
1083;DHT22;530;51.448;7.238;2023-08-30T13:10:06;16.30;99.90
1083;DHT22;530;51.448;7.238;2023-08-30T13:12:32;16.30;99.90
1083;DHT22;530;51.448;7.238;2023-08-30T13:14:58;16.40;99.90
1083;DHT22;530;51.448;7.238;2023-08-30T13:17:24;16.40;99.90
1083;DHT22;530;51.448;7.238;2023-08-30T13:19:49;16.30;99.90
1083;DHT22;530;51.448;7.238;2023-08-30T13:22:16;16.20;99.90
1083;DHT22;530;51.448;7.238;2023-08-30T13:24:42;16.20;99.90
1083;DHT22;530;51.448;7.238;2023-08-30T13:27:07;16.20;99.90
1083;DHT22;530;51.448;7.238;2023-08-30T13:29:33;16.30;99.90
1083;DHT22;530;51.448;7.238;2023-08-30T13:31:59;16.30;99.90
1083;DHT22;530;51.448;7.238;2023-08-30T13:34:24;16.40;99.90
1083;DHT22;530;51.448;7.238;2023-08-30T13:36:50;16.40;99.90
1083;DHT22;530;51.448;7.238;2023-08-30T13:39:16;16.30;99.90
1083;DHT22;530;51.448;7.238;2023-08-30T13:41:43;16.10;99.90
1083;DHT22;530;51.448;7.238;2023-08-30T13:44:09;16.10;99.90
1083;DHT22;530;51.448;7.238;2023-08-30T13:46:34;16.10;99.90
1083;DHT22;530;51.448;7.238;2023-08-30T13:49:00;16.20;99.90
1083;DHT22;530;51.448;7.238;2023-08-30T13:51:26;16.10;99.90
1083;DHT22;530;51.448;7.238;2023-08-30T13:53:52;16.10;99.90
1083;DHT22;530;51.448;7.238;2023-08-30T13:56:19;16.20;99.90
1083;DHT22;530;51.448;7.238;2023-08-30T13:58:46;16.20;99.90
1083;DHT22;530;51.448;7.238;2023-08-30T14:01:12;16.20;99.90
1083;DHT22;530;51.448;7.238;2023-08-30T14:03:37;16.20;99.90
1083;DHT22;530;51.448;7.238;2023-08-30T14:06:03;16.20;99.90
1083;DHT22;530;51.448;7.238;2023-08-30T14:08:30;16.20;99.90
1083;DHT22;530;51.448;7.238;2023-08-30T14:10:56;16.10;99.90
1083;DHT22;530;51.448;7.238;2023-08-30T14:13:22;16.10;99.90
1083;DHT22;530;51.448;7.238;2023-08-30T14:15:47;16.10;99.90
1083;DHT22;530;51.448;7.238;2023-08-30T14:18:14;16.20;99.90
1083;DHT22;530;51.448;7.238;2023-08-30T14:20:43;16.30;99.90
1083;DHT22;530;51.448;7.238;2023-08-30T14:23:09;16.20;99.90
1083;DHT22;530;51.448;7.238;2023-08-30T14:25:35;16.20;99.90
1083;DHT22;530;51.448;7.238;2023-08-30T14:28:01;16.20;99.90
1083;DHT22;530;51.448;7.238;2023-08-30T14:30:28;16.20;99.90
1083;DHT22;530;51.448;7.238;2023-08-30T14:32:53;16.20;99.90
1083;DHT22;530;51.448;7.238;2023-08-30T14:35:19;16.20;99.90
1083;DHT22;530;51.448;7.238;2023-08-30T14:37:50;16.20;99.90
1083;DHT22;530;51.448;7.238;2023-08-30T14:40:16;16.20;99.90
1083;DHT22;530;51.448;7.238;2023-08-30T14:42:42;16.30;99.90
1083;DHT22;530;51.448;7.238;2023-08-30T14:45:08;16.20;99.90
1083;DHT22;530;51.448;7.238;2023-08-30T14:47:34;16.10;99.90
1083;DHT22;530;51.448;7.238;2023-08-30T14:50:00;16.10;99.90
1083;DHT22;530;51.448;7.238;2023-08-30T14:52:29;16.10;99.90
1083;DHT22;530;51.448;7.238;2023-08-30T14:54:55;16.10;99.90
1083;DHT22;530;51.448;7.238;2023-08-30T14:57:21;16.10;99.90
1083;DHT22;530;51.448;7.238;2023-08-30T14:59:47;16.20;99.90
1083;DHT22;530;51.448;7.238;2023-08-30T15:02:13;16.20;99.90
1083;DHT22;530;51.448;7.238;2023-08-30T15:04:40;16.20;99.90
1083;DHT22;530;51.448;7.238;2023-08-30T15:07:05;16.00;99.90
1083;DHT22;530;51.448;7.238;2023-08-30T15:09:31;16.00;99.90
1083;DHT22;530;51.448;7.238;2023-08-30T15:11:57;16.00;99.90
1083;DHT22;530;51.448;7.238;2023-08-30T15:14:24;15.90;99.90
1083;DHT22;530;51.448;7.238;2023-08-30T15:16:50;15.90;99.90
1083;DHT22;530;51.448;7.238;2023-08-30T15:19:15;15.70;99.90
1083;DHT22;530;51.448;7.238;2023-08-30T15:21:41;15.70;99.90
1083;DHT22;530;51.448;7.238;2023-08-30T15:24:08;15.60;99.90
1083;DHT22;530;51.448;7.238;2023-08-30T15:26:33;15.60;99.90
1083;DHT22;530;51.448;7.238;2023-08-30T15:28:59;15.60;99.90
1083;DHT22;530;51.448;7.238;2023-08-30T15:31:25;15.60;99.90
1083;DHT22;530;51.448;7.238;2023-08-30T15:33:50;15.70;99.90
1083;DHT22;530;51.448;7.238;2023-08-30T15:36:17;15.60;99.90
1083;DHT22;530;51.448;7.238;2023-08-30T15:38:42;15.60;99.90
1083;DHT22;530;51.448;7.238;2023-08-30T15:41:11;15.60;99.90
1083;DHT22;530;51.448;7.238;2023-08-30T15:43:38;15.70;99.90
1083;DHT22;530;51.448;7.238;2023-08-30T15:46:09;15.70;99.90
1083;DHT22;530;51.448;7.238;2023-08-30T15:48:35;15.70;99.90
1083;DHT22;530;51.448;7.238;2023-08-30T15:51:01;15.60;99.90
1083;DHT22;530;51.448;7.238;2023-08-30T15:53:27;15.70;99.90
1083;DHT22;530;51.448;7.238;2023-08-30T15:55:53;15.70;99.90
1083;DHT22;530;51.448;7.238;2023-08-30T15:58:19;15.60;99.90
1083;DHT22;530;51.448;7.238;2023-08-30T16:00:45;15.60;99.90
1083;DHT22;530;51.448;7.238;2023-08-30T16:03:14;15.60;99.90
1083;DHT22;530;51.448;7.238;2023-08-30T16:05:44;15.50;99.90
1083;DHT22;530;51.448;7.238;2023-08-30T16:08:10;15.60;99.90
1083;DHT22;530;51.448;7.238;2023-08-30T16:10:36;15.70;99.90
1083;DHT22;530;51.448;7.238;2023-08-30T16:13:02;15.70;99.90
1083;DHT22;530;51.448;7.238;2023-08-30T16:15:28;15.70;99.90
1083;DHT22;530;51.448;7.238;2023-08-30T16:17:55;15.80;99.90
1083;DHT22;530;51.448;7.238;2023-08-30T16:20:21;15.90;99.90
1083;DHT22;530;51.448;7.238;2023-08-30T16:22:49;16.00;99.90
1083;DHT22;530;51.448;7.238;2023-08-30T16:25:15;15.90;99.90
1083;DHT22;530;51.448;7.238;2023-08-30T16:27:41;16.00;99.90